Dades meteomassalio
Diari Summary for Febrer 4, 2018 Units:  Both    English   Metric
« Previous Day
Next Day »
Diari Semanal Mensual Anual Personalitzat
  Maxima: Minima: Mijana:
Temperatura: TemperatureC °F /  -17.8 °C 3.3 °F /  -15.9 °C 4.7 °F /  -15.2 °C
Rosada: DewpointC °F /  -17.8 °C 0.6 °F /  -17.4 °C 2.9 °F /  -16.2 °C
Humitat: Humidity % 70 % 88 %
Velocitat del vent: WindSpeedKMH mph /  0 km/h - 3.7 mph /  6 km/h
Racha vent: WindSpeedGustKMH mph /  0 km/h - -
Vent:- - SW
Pressio: PressurehPa in /  0 hPa 1011.7 in /  34256.2 hPa -
Pluja: 4.8 in /  121.92 mm    
Historical Graphs
 
 
Tabular Data for Febrer 4, 2018
Time Temperature Dew Point Pressure Wind Wind Speed Wind Gust Humidity Rainfall Rate (Hourly) solar Conditions
TemperatureC °F /  -17.8 °C DewpointC °F /  -17.8 °C PressurehPa in /  0 hPa Calm     Humidity % HourlyPrecipMM in /  0 mm SolarRadiationWatts/m^2 W/m2 Conditions
00:00 6.7 °F /  -14.1 °C 1.6 °F /  -16.9 °C 1015.1 in /  34371.3 hPa NW 20.4 mph /  32.8 km/h 20.4 mph /  32.8 km/h 70 % 0.0 in /  0 mm 0.0 W/m2 CLR
00:05 6.7 °F /  -14.1 °C 1.8 °F /  -16.8 °C 1015.1 in /  34371.3 hPa NNW 18.5 mph /  29.8 km/h 18.5 mph /  29.8 km/h 71 % 0.0 in /  0 mm 0.0 W/m2 CLR
00:10 6.7 °F /  -14.1 °C 2.0 °F /  -16.7 °C 1015.1 in /  34371.3 hPa NNW 18.5 mph /  29.8 km/h 18.5 mph /  29.8 km/h 72 % 0.0 in /  0 mm 0.0 W/m2 CLR
00:15 6.7 °F /  -14.1 °C 2.0 °F /  -16.7 °C 1015.1 in /  34371.3 hPa NNW 24.1 mph /  38.8 km/h 24.1 mph /  38.8 km/h 72 % 0.0 in /  0 mm 0.0 W/m2 CLR
00:20 6.7 °F /  -14.1 °C 2.2 °F /  -16.6 °C 1015.1 in /  34371.3 hPa North 20.4 mph /  32.8 km/h 20.4 mph /  32.8 km/h 73 % 0.0 in /  0 mm 0.0 W/m2 CLR
00:25 6.7 °F /  -14.1 °C 2.3 °F /  -16.5 °C 1015.1 in /  34371.3 hPa North 22.2 mph /  35.7 km/h 22.2 mph /  35.7 km/h 74 % 0.0 in /  0 mm 0.0 W/m2 CLR
00:30 6.7 °F /  -14.1 °C 2.6 °F /  -16.3 °C 1015.1 in /  34371.3 hPa North 20.4 mph /  32.8 km/h 20.4 mph /  32.8 km/h 75 % 0.0 in /  0 mm 0.0 W/m2 CLR
00:35 6.7 °F /  -14.1 °C 2.6 °F /  -16.3 °C 1014.8 in /  34361.1 hPa NNW 22.2 mph /  35.7 km/h 22.2 mph /  35.7 km/h 75 % 0.0 in /  0 mm 0.0 W/m2 CLR
00:40 6.7 °F /  -14.1 °C 2.7 °F /  -16.3 °C 1014.8 in /  34361.1 hPa North 29.6 mph /  47.6 km/h 29.6 mph /  47.6 km/h 76 % 0.0 in /  0 mm 0.0 W/m2 CLR
00:45 6.7 °F /  -14.1 °C 2.9 °F /  -16.2 °C 1014.8 in /  34361.1 hPa NNW 22.2 mph /  35.7 km/h 22.2 mph /  35.7 km/h 77 % 0.0 in /  0 mm 0.0 W/m2 CLR
00:50 6.7 °F /  -14.1 °C 2.9 °F /  -16.2 °C 1014.8 in /  34361.1 hPa NNW 20.4 mph /  32.8 km/h 20.4 mph /  32.8 km/h 77 % 0.0 in /  0 mm 0.0 W/m2 CLR
00:55 7.2 °F /  -13.8 °C 3.4 °F /  -15.9 °C 1014.8 in /  34361.1 hPa NNW 24.1 mph /  38.8 km/h 24.1 mph /  38.8 km/h 77 % 0.0 in /  0 mm 0.0 W/m2 CLR
01:00 7.2 °F /  -13.8 °C 3.4 °F /  -15.9 °C 1014.8 in /  34361.1 hPa NW 20.4 mph /  32.8 km/h 20.4 mph /  32.8 km/h 77 % 0.0 in /  0 mm 0.0 W/m2 CLR
01:05 7.2 °F /  -13.8 °C 3.3 °F /  -15.9 °C 1014.8 in /  34361.1 hPa NNW 18.5 mph /  29.8 km/h 18.5 mph /  29.8 km/h 76 % 0.0 in /  0 mm 0.0 W/m2 CLR
01:10 7.2 °F /  -13.8 °C 3.3 °F /  -15.9 °C 1014.8 in /  34361.1 hPa NW 25.9 mph /  41.7 km/h 25.9 mph /  41.7 km/h 76 % 0.0 in /  0 mm 0.0 W/m2 CLR
01:15 7.2 °F /  -13.8 °C 3.3 °F /  -15.9 °C 1014.8 in /  34361.1 hPa NW 18.5 mph /  29.8 km/h 18.5 mph /  29.8 km/h 76 % 0.0 in /  0 mm 0.0 W/m2 CLR
01:20 7.2 °F /  -13.8 °C 3.3 °F /  -15.9 °C 1014.4 in /  34347.6 hPa NW 16.7 mph /  26.9 km/h 16.7 mph /  26.9 km/h 76 % 0.0 in /  0 mm 0.0 W/m2 CLR
01:25 7.2 °F /  -13.8 °C 3.3 °F /  -15.9 °C 1014.4 in /  34347.6 hPa NW 18.5 mph /  29.8 km/h 18.5 mph /  29.8 km/h 76 % 0.0 in /  0 mm 0.0 W/m2 CLR
01:30 7.2 °F /  -13.8 °C 3.1 °F /  -16.1 °C 1014.4 in /  34347.6 hPa NW 20.4 mph /  32.8 km/h 20.4 mph /  32.8 km/h 75 % 0.0 in /  0 mm 0.0 W/m2 CLR
01:35 7.2 °F /  -13.8 °C 3.1 °F /  -16.1 °C 1014.4 in /  34347.6 hPa WNW 18.5 mph /  29.8 km/h 18.5 mph /  29.8 km/h 75 % 0.0 in /  0 mm 0.0 W/m2 CLR
01:40 7.2 °F /  -13.8 °C 3.1 °F /  -16.1 °C 1014.1 in /  34337.4 hPa NW 20.4 mph /  32.8 km/h 20.4 mph /  32.8 km/h 75 % 0.0 in /  0 mm 0.0 W/m2 CLR
01:45 7.2 °F /  -13.8 °C 3.1 °F /  -16.1 °C 1014.1 in /  34337.4 hPa NW 18.5 mph /  29.8 km/h 18.5 mph /  29.8 km/h 75 % 0.0 in /  0 mm 0.0 W/m2 CLR
01:51 7.2 °F /  -13.8 °C 3.3 °F /  -15.9 °C 1014.1 in /  34337.4 hPa NW 11.1 mph /  17.9 km/h 11.1 mph /  17.9 km/h 76 % 0.0 in /  0 mm 0.0 W/m2 CLR
01:56 6.7 °F /  -14.1 °C 2.7 °F /  -16.3 °C 1014.1 in /  34337.4 hPa NW 11.1 mph /  17.9 km/h 11.1 mph /  17.9 km/h 76 % 0.0 in /  0 mm 0.0 W/m2 CLR
02:01 6.7 °F /  -14.1 °C 2.7 °F /  -16.3 °C 1014.1 in /  34337.4 hPa NW 14.8 mph /  23.8 km/h 14.8 mph /  23.8 km/h 76 % 0.0 in /  0 mm 0.0 W/m2 CLR
02:06 6.7 °F /  -14.1 °C 2.9 °F /  -16.2 °C 1013.8 in /  34327.3 hPa NW 14.8 mph /  23.8 km/h 14.8 mph /  23.8 km/h 77 % 0.0 in /  0 mm 0.0 W/m2 CLR
02:11 6.1 °F /  -14.4 °C 2.4 °F /  -16.4 °C 1013.8 in /  34327.3 hPa NW 14.8 mph /  23.8 km/h 14.8 mph /  23.8 km/h 77 % 0.0 in /  0 mm 0.0 W/m2 CLR
02:16 6.1 °F /  -14.4 °C 2.6 °F /  -16.3 °C 1013.8 in /  34327.3 hPa NW 18.5 mph /  29.8 km/h 18.5 mph /  29.8 km/h 78 % 0.0 in /  0 mm 0.0 W/m2 CLR
02:21 6.1 °F /  -14.4 °C 2.6 °F /  -16.3 °C 1013.4 in /  34313.7 hPa NW 17.7 mph /  28.5 km/h 17.7 mph /  28.5 km/h 78 % 0.0 in /  0 mm 0.0 W/m2 CLR
02:26 5.6 °F /  -14.7 °C 2.2 °F /  -16.6 °C 1013.4 in /  34313.7 hPa NW 14.8 mph /  23.8 km/h 14.8 mph /  23.8 km/h 79 % 0.0 in /  0 mm 0.0 W/m2 CLR
02:31 5.6 °F /  -14.7 °C 2.2 °F /  -16.6 °C 1013.4 in /  34313.7 hPa NW 14.8 mph /  23.8 km/h 14.8 mph /  23.8 km/h 79 % 0.0 in /  0 mm 0.0 W/m2 CLR
02:36 5.6 °F /  -14.7 °C 2.2 °F /  -16.6 °C 1013.4 in /  34313.7 hPa WNW 13.0 mph /  20.9 km/h 13.0 mph /  20.9 km/h 79 % 0.0 in /  0 mm 0.0 W/m2 CLR
02:41 5.0 °F /  -15 °C 1.7 °F /  -16.8 °C 1013.4 in /  34313.7 hPa NW 13.0 mph /  20.9 km/h 13.0 mph /  20.9 km/h 79 % 0.0 in /  0 mm 0.0 W/m2 CLR
02:46 5.0 °F /  -15 °C 1.7 °F /  -16.8 °C 1013.4 in /  34313.7 hPa NW 8.0 mph /  12.9 km/h 8.0 mph /  12.9 km/h 79 % 0.0 in /  0 mm 0.0 W/m2 CLR
02:51 5.0 °F /  -15 °C 1.7 °F /  -16.8 °C 1013.4 in /  34313.7 hPa NW 11.3 mph /  18.2 km/h 11.3 mph /  18.2 km/h 79 % 0.0 in /  0 mm 0.0 W/m2 CLR
02:56 4.4 °F /  -15.3 °C 1.3 °F /  -17.1 °C 1013.4 in /  34313.7 hPa NW 11.1 mph /  17.9 km/h 11.1 mph /  17.9 km/h 80 % 0.0 in /  0 mm 0.0 W/m2 CLR
03:01 4.4 °F /  -15.3 °C 1.3 °F /  -17.1 °C 1013.4 in /  34313.7 hPa NW 14.8 mph /  23.8 km/h 14.8 mph /  23.8 km/h 80 % 0.0 in /  0 mm 0.0 W/m2 CLR
03:06 3.9 °F /  -15.6 °C 0.8 °F /  -17.3 °C 1013.4 in /  34313.7 hPa NW 9.3 mph /  15 km/h 9.3 mph /  15 km/h 80 % 0.0 in /  0 mm 0.0 W/m2 CLR
03:11 3.9 °F /  -15.6 °C 0.8 °F /  -17.3 °C 1013.4 in /  34313.7 hPa WNW 9.7 mph /  15.6 km/h 9.7 mph /  15.6 km/h 80 % 0.0 in /  0 mm 0.0 W/m2 CLR
03:16 4.4 °F /  -15.3 °C 1.4 °F /  -17 °C 1013.1 in /  34303.6 hPa WSW 11.1 mph /  17.9 km/h 11.1 mph /  17.9 km/h 81 % 0.0 in /  0 mm 0.0 W/m2 CLR
03:21 5.0 °F /  -15 °C 2.0 °F /  -16.7 °C 1013.1 in /  34303.6 hPa West 6.4 mph /  10.3 km/h 6.4 mph /  10.3 km/h 81 % 0.0 in /  0 mm 0.0 W/m2 CLR
03:26 5.0 °F /  -15 °C 2.0 °F /  -16.7 °C 1013.1 in /  34303.6 hPa WNW 7.4 mph /  11.9 km/h 7.4 mph /  11.9 km/h 81 % 0.0 in /  0 mm 0.0 W/m2 CLR
03:31 4.4 °F /  -15.3 °C 1.6 °F /  -16.9 °C 1013.1 in /  34303.6 hPa WNW 9.3 mph /  15 km/h 9.3 mph /  15 km/h 82 % 0.0 in /  0 mm 0.0 W/m2 CLR
03:36 3.9 °F /  -15.6 °C 1.1 °F /  -17.2 °C 1013.4 in /  34313.7 hPa WNW 5.6 mph /  9 km/h 5.6 mph /  9 km/h 82 % 0.0 in /  0 mm 0.0 W/m2 CLR
03:41 3.3 °F /  -15.9 °C 0.6 °F /  -17.4 °C 1013.4 in /  34313.7 hPa NW 9.3 mph /  15 km/h 9.3 mph /  15 km/h 82 % 0.0 in /  0 mm 0.0 W/m2 CLR
03:46 3.3 °F /  -15.9 °C 0.6 °F /  -17.4 °C 1013.4 in /  34313.7 hPa Calm     82 % 0.0 in /  0 mm 0.0 W/m2 CLR
03:51 3.3 °F /  -15.9 °C 0.6 °F /  -17.4 °C 1013.1 in /  34303.6 hPa West 3.7 mph /  6 km/h 3.7 mph /  6 km/h 82 % 0.0 in /  0 mm 0.0 W/m2 CLR
03:56 3.9 °F /  -15.6 °C 1.1 °F /  -17.2 °C 1013.1 in /  34303.6 hPa Calm     82 % 0.0 in /  0 mm 0.0 W/m2 CLR
04:01 3.3 °F /  -15.9 °C 0.7 °F /  -17.4 °C 1013.1 in /  34303.6 hPa Calm     83 % 0.0 in /  0 mm 0.0 W/m2 CLR
04:06 3.3 °F /  -15.9 °C 0.7 °F /  -17.4 °C 1013.4 in /  34313.7 hPa Calm     83 % 0.0 in /  0 mm 0.0 W/m2 CLR
04:11 3.3 °F /  -15.9 °C 0.9 °F /  -17.3 °C 1013.4 in /  34313.7 hPa Calm     84 % 0.0 in /  0 mm 0.0 W/m2 CLR
04:16 3.3 °F /  -15.9 °C 0.9 °F /  -17.3 °C 1013.4 in /  34313.7 hPa Calm     84 % 0.0 in /  0 mm 0.0 W/m2 CLR
04:21 3.3 °F /  -15.9 °C 1.1 °F /  -17.2 °C 1013.4 in /  34313.7 hPa Calm     85 % 0.0 in /  0 mm 0.0 W/m2 CLR
04:26 3.3 °F /  -15.9 °C 1.1 °F /  -17.2 °C 1013.4 in /  34313.7 hPa Calm     85 % 0.0 in /  0 mm 0.0 W/m2 CLR
04:31 3.3 °F /  -15.9 °C 1.1 °F /  -17.2 °C 1013.4 in /  34313.7 hPa Calm     85 % 0.0 in /  0 mm 0.0 W/m2 CLR
04:36 3.3 °F /  -15.9 °C 1.1 °F /  -17.2 °C 1013.4 in /  34313.7 hPa Calm     85 % 0.0 in /  0 mm 0.0 W/m2 CLR
04:41 3.3 °F /  -15.9 °C 1.1 °F /  -17.2 °C 1013.1 in /  34303.6 hPa Calm     85 % 0.0 in /  0 mm 0.0 W/m2 CLR
04:46 3.3 °F /  -15.9 °C 1.1 °F /  -17.2 °C 1013.1 in /  34303.6 hPa Calm     85 % 0.0 in /  0 mm 0.0 W/m2 CLR
04:51 3.3 °F /  -15.9 °C 1.1 °F /  -17.2 °C 1013.4 in /  34313.7 hPa Calm     85 % 0.0 in /  0 mm 0.0 W/m2 CLR
04:56 3.3 °F /  -15.9 °C 1.2 °F /  -17.1 °C 1013.4 in /  34313.7 hPa Calm     86 % 0.0 in /  0 mm 0.0 W/m2 CLR
05:01 3.3 °F /  -15.9 °C 1.2 °F /  -17.1 °C 1013.4 in /  34313.7 hPa Calm     86 % 0.0 in /  0 mm 0.0 W/m2 CLR
05:06 3.3 °F /  -15.9 °C 1.2 °F /  -17.1 °C 1013.4 in /  34313.7 hPa Calm     86 % 0.0 in /  0 mm 0.0 W/m2 CLR
05:11 3.3 °F /  -15.9 °C 1.2 °F /  -17.1 °C 1013.4 in /  34313.7 hPa Calm     86 % 0.0 in /  0 mm 0.0 W/m2 CLR
05:16 3.3 °F /  -15.9 °C 1.2 °F /  -17.1 °C 1013.4 in /  34313.7 hPa Calm     86 % 0.0 in /  0 mm 0.0 W/m2 CLR
05:21 3.3 °F /  -15.9 °C 1.2 °F /  -17.1 °C 1013.4 in /  34313.7 hPa Calm     86 % 0.0 in /  0 mm 0.0 W/m2 CLR
05:26 3.3 °F /  -15.9 °C 1.2 °F /  -17.1 °C 1013.4 in /  34313.7 hPa Calm     86 % 0.0 in /  0 mm 0.0 W/m2 CLR
05:31 3.3 °F /  -15.9 °C 1.2 °F /  -17.1 °C 1013.4 in /  34313.7 hPa Calm     86 % 0.0 in /  0 mm 0.0 W/m2 CLR
05:36 3.3 °F /  -15.9 °C 1.4 °F /  -17 °C 1013.4 in /  34313.7 hPa Calm     87 % 0.0 in /  0 mm 0.0 W/m2 CLR
05:41 3.3 °F /  -15.9 °C 1.4 °F /  -17 °C 1013.4 in /  34313.7 hPa Calm     87 % 0.0 in /  0 mm 0.0 W/m2 CLR
05:46 3.3 °F /  -15.9 °C 1.6 °F /  -16.9 °C 1013.4 in /  34313.7 hPa Calm     88 % 0.0 in /  0 mm 0.0 W/m2 CLR
05:51 3.9 °F /  -15.6 °C 1.9 °F /  -16.7 °C 1013.4 in /  34313.7 hPa Calm     87 % 0.0 in /  0 mm 0.0 W/m2 CLR
05:56 3.9 °F /  -15.6 °C 1.9 °F /  -16.7 °C 1013.4 in /  34313.7 hPa Calm     87 % 0.0 in /  0 mm 0.0 W/m2 CLR
06:01 3.9 °F /  -15.6 °C 2.1 °F /  -16.6 °C 1013.4 in /  34313.7 hPa Calm     88 % 0.0 in /  0 mm 0.0 W/m2 CLR
06:06 3.9 °F /  -15.6 °C 2.1 °F /  -16.6 °C 1013.4 in /  34313.7 hPa Calm     88 % 0.0 in /  0 mm 0.0 W/m2 CLR
06:11 3.3 °F /  -15.9 °C 1.6 °F /  -16.9 °C 1013.4 in /  34313.7 hPa Calm     88 % 0.0 in /  0 mm 0.0 W/m2 CLR
06:16 3.3 °F /  -15.9 °C 1.6 °F /  -16.9 °C 1013.4 in /  34313.7 hPa Calm     88 % 0.0 in /  0 mm 0.0 W/m2 CLR
06:21 3.3 °F /  -15.9 °C 1.7 °F /  -16.8 °C 1013.4 in /  34313.7 hPa Calm     89 % 0.0 in /  0 mm 0.0 W/m2 CLR
06:26 3.3 °F /  -15.9 °C 1.7 °F /  -16.8 °C 1013.4 in /  34313.7 hPa Calm     89 % 0.0 in /  0 mm 0.0 W/m2 CLR
06:31 3.3 °F /  -15.9 °C 1.7 °F /  -16.8 °C 1013.4 in /  34313.7 hPa Calm     89 % 0.0 in /  0 mm 0.0 W/m2 CLR
06:36 3.3 °F /  -15.9 °C 1.7 °F /  -16.8 °C 1013.4 in /  34313.7 hPa Calm     89 % 0.0 in /  0 mm 0.0 W/m2 CLR
06:41 3.3 °F /  -15.9 °C 1.7 °F /  -16.8 °C 1013.4 in /  34313.7 hPa Calm     89 % 0.0 in /  0 mm 0.0 W/m2 CLR
06:46 3.3 °F /  -15.9 °C 1.7 °F /  -16.8 °C 1013.4 in /  34313.7 hPa Calm     89 % 0.0 in /  0 mm 0.0 W/m2 CLR
06:51 3.3 °F /  -15.9 °C 1.7 °F /  -16.8 °C 1013.4 in /  34313.7 hPa Calm     89 % 0.0 in /  0 mm 0.0 W/m2 CLR
06:56 3.3 °F /  -15.9 °C 1.7 °F /  -16.8 °C 1013.4 in /  34313.7 hPa Calm     89 % 0.0 in /  0 mm 0.0 W/m2 CLR
07:01 3.3 °F /  -15.9 °C 1.7 °F /  -16.8 °C 1013.4 in /  34313.7 hPa Calm     89 % 0.0 in /  0 mm 0.0 W/m2 CLR
07:06 3.3 °F /  -15.9 °C 1.7 °F /  -16.8 °C 1013.4 in /  34313.7 hPa Calm     89 % 0.0 in /  0 mm 0.0 W/m2 CLR
07:11 3.3 °F /  -15.9 °C 1.7 °F /  -16.8 °C 1013.4 in /  34313.7 hPa Calm     89 % 0.0 in /  0 mm 0.0 W/m2 CLR
07:16 3.3 °F /  -15.9 °C 1.7 °F /  -16.8 °C 1013.4 in /  34313.7 hPa Calm     89 % 0.0 in /  0 mm 0.0 W/m2 CLR
07:21 3.3 °F /  -15.9 °C 1.7 °F /  -16.8 °C 1013.4 in /  34313.7 hPa Calm     89 % 0.0 in /  0 mm 0.0 W/m2 CLR
07:26 3.3 °F /  -15.9 °C 1.7 °F /  -16.8 °C 1013.4 in /  34313.7 hPa Calm     89 % 0.0 in /  0 mm 0.0 W/m2 CLR
07:31 3.3 °F /  -15.9 °C 1.7 °F /  -16.8 °C 1013.4 in /  34313.7 hPa Calm     89 % 0.0 in /  0 mm 0.0 W/m2 CLR
07:36 3.3 °F /  -15.9 °C 1.6 °F /  -16.9 °C 1013.4 in /  34313.7 hPa North 5.6 mph /  9 km/h 5.6 mph /  9 km/h 88 % 0.0 in /  0 mm 0.0 W/m2 CLR
07:41 3.3 °F /  -15.9 °C 1.4 °F /  -17 °C 1013.4 in /  34313.7 hPa North 12.9 mph /  20.8 km/h 12.9 mph /  20.8 km/h 87 % 0.0 in /  0 mm 0.0 W/m2 CLR
07:46 3.3 °F /  -15.9 °C 1.2 °F /  -17.1 °C 1013.4 in /  34313.7 hPa Calm     86 % 0.0 in /  0 mm 0.0 W/m2 CLR
07:51 3.3 °F /  -15.9 °C 1.1 °F /  -17.2 °C 1013.4 in /  34313.7 hPa North 16.7 mph /  26.9 km/h 16.7 mph /  26.9 km/h 85 % 0.0 in /  0 mm 0.0 W/m2 CLR
07:56 3.3 °F /  -15.9 °C 1.1 °F /  -17.2 °C 1013.4 in /  34313.7 hPa NNE 14.8 mph /  23.8 km/h 14.8 mph /  23.8 km/h 85 % 0.0 in /  0 mm 0.0 W/m2 CLR
08:02 3.9 °F /  -15.6 °C 1.6 °F /  -16.9 °C 1013.4 in /  34313.7 hPa North 18.5 mph /  29.8 km/h 18.5 mph /  29.8 km/h 85 % 0.0 in /  0 mm 0.0 W/m2 OVC
08:07 3.9 °F /  -15.6 °C 1.6 °F /  -16.9 °C 1013.4 in /  34313.7 hPa North 14.8 mph /  23.8 km/h 14.8 mph /  23.8 km/h 85 % 0.0 in /  0 mm 0.0 W/m2 OVC
08:12 3.9 °F /  -15.6 °C 1.8 °F /  -16.8 °C 1013.4 in /  34313.7 hPa NNW 13.0 mph /  20.9 km/h 13.0 mph /  20.9 km/h 86 % 0.0 in /  0 mm 0.0 W/m2 OVC
08:17 3.9 °F /  -15.6 °C 1.8 °F /  -16.8 °C 1013.4 in /  34313.7 hPa North 16.7 mph /  26.9 km/h 16.7 mph /  26.9 km/h 86 % 0.0 in /  0 mm 0.0 W/m2 OVC
08:22 4.4 °F /  -15.3 °C 2.3 °F /  -16.5 °C 1013.4 in /  34313.7 hPa North 11.1 mph /  17.9 km/h 11.1 mph /  17.9 km/h 86 % 0.0 in /  0 mm 5.0 W/m2 OVC
08:27 4.4 °F /  -15.3 °C 2.4 °F /  -16.4 °C 1013.4 in /  34313.7 hPa Calm     87 % 0.3 in /  7.62 mm 7.0 W/m2 RA
08:32 4.4 °F /  -15.3 °C 2.4 °F /  -16.4 °C 1013.4 in /  34313.7 hPa Calm     87 % 0.3 in /  7.62 mm 11.0 W/m2 BKN
08:37 4.4 °F /  -15.3 °C 2.4 °F /  -16.4 °C 1013.4 in /  34313.7 hPa North 11.1 mph /  17.9 km/h 11.1 mph /  17.9 km/h 87 % 0.3 in /  7.62 mm 12.0 W/m2 BKN
08:42 5.0 °F /  -15 °C 3.0 °F /  -16.1 °C 1013.4 in /  34313.7 hPa Calm     87 % 0.3 in /  7.62 mm 16.0 W/m2 BKN
08:47 5.0 °F /  -15 °C 3.2 °F /  -16 °C 1013.4 in /  34313.7 hPa Calm     88 % 0.3 in /  7.62 mm 21.0 W/m2 BKN
08:52 5.0 °F /  -15 °C 3.2 °F /  -16 °C 1013.4 in /  34313.7 hPa Calm     88 % 0.3 in /  7.62 mm 33.0 W/m2 BKN
08:57 5.0 °F /  -15 °C 3.2 °F /  -16 °C 1013.4 in /  34313.7 hPa Calm     88 % 0.3 in /  7.62 mm 40.0 W/m2 BKN
09:02 5.0 °F /  -15 °C 3.2 °F /  -16 °C 1013.4 in /  34313.7 hPa Calm     88 % 0.3 in /  7.62 mm 47.0 W/m2 SCT
09:07 5.0 °F /  -15 °C 3.3 °F /  -15.9 °C 1013.8 in /  34327.3 hPa Calm     89 % 0.3 in /  7.62 mm 56.0 W/m2 SCT
09:12 5.0 °F /  -15 °C 3.2 °F /  -16 °C 1013.8 in /  34327.3 hPa Calm     88 % 0.3 in /  7.62 mm 60.0 W/m2 SCT
09:17 5.0 °F /  -15 °C 3.3 °F /  -15.9 °C 1013.8 in /  34327.3 hPa Calm     89 % 0.3 in /  7.62 mm 63.0 W/m2 SCT
09:22 5.0 °F /  -15 °C 3.3 °F /  -15.9 °C 1013.8 in /  34327.3 hPa Calm     89 % 0.3 in /  7.62 mm 54.0 W/m2 SCT
09:27 5.0 °F /  -15 °C 3.3 °F /  -15.9 °C 1013.8 in /  34327.3 hPa Calm     89 % 0.0 in /  0 mm 58.0 W/m2 SCT
09:32 5.0 °F /  -15 °C 3.3 °F /  -15.9 °C 1013.8 in /  34327.3 hPa Calm     89 % 0.0 in /  0 mm 67.0 W/m2 SCT
09:37 5.0 °F /  -15 °C 3.3 °F /  -15.9 °C 1013.8 in /  34327.3 hPa Calm     89 % 0.0 in /  0 mm 67.0 W/m2 FEW
09:42 5.0 °F /  -15 °C 3.3 °F /  -15.9 °C 1013.8 in /  34327.3 hPa Calm     89 % 0.0 in /  0 mm 72.0 W/m2 FEW
09:47 5.0 °F /  -15 °C 3.3 °F /  -15.9 °C 1013.8 in /  34327.3 hPa Calm     89 % 0.0 in /  0 mm 79.0 W/m2 FEW
09:52 5.0 °F /  -15 °C 3.3 °F /  -15.9 °C 1013.8 in /  34327.3 hPa Calm     89 % 0.0 in /  0 mm 76.0 W/m2 FEW
09:57 5.0 °F /  -15 °C 3.3 °F /  -15.9 °C 1013.8 in /  34327.3 hPa Calm     89 % 0.0 in /  0 mm 63.0 W/m2 FEW
10:02 5.0 °F /  -15 °C 3.3 °F /  -15.9 °C 1013.8 in /  34327.3 hPa Calm     89 % 0.0 in /  0 mm 54.0 W/m2 FEW
10:07 5.0 °F /  -15 °C 3.3 °F /  -15.9 °C 1013.8 in /  34327.3 hPa Calm     89 % 0.0 in /  0 mm 63.0 W/m2 SCT
10:12 5.0 °F /  -15 °C 3.3 °F /  -15.9 °C 1013.8 in /  34327.3 hPa North 11.1 mph /  17.9 km/h 11.1 mph /  17.9 km/h 89 % 0.0 in /  0 mm 53.0 W/m2 SCT
10:17 5.0 °F /  -15 °C 3.3 °F /  -15.9 °C 1013.8 in /  34327.3 hPa North 9.3 mph /  15 km/h 9.3 mph /  15 km/h 89 % 0.0 in /  0 mm 42.0 W/m2 SCT
10:22 5.0 °F /  -15 °C 3.3 °F /  -15.9 °C 1013.8 in /  34327.3 hPa NNE 12.9 mph /  20.8 km/h 12.9 mph /  20.8 km/h 89 % 0.0 in /  0 mm 44.0 W/m2 BKN
10:27 5.0 °F /  -15 °C 3.3 °F /  -15.9 °C 1013.8 in /  34327.3 hPa Calm     89 % 0.0 in /  0 mm 37.0 W/m2 BKN
10:32 5.0 °F /  -15 °C 3.3 °F /  -15.9 °C 1013.8 in /  34327.3 hPa Calm     89 % 0.0 in /  0 mm 33.0 W/m2 BKN
10:37 5.0 °F /  -15 °C 3.3 °F /  -15.9 °C 1013.8 in /  34327.3 hPa ENE 9.7 mph /  15.6 km/h 9.7 mph /  15.6 km/h 89 % 0.0 in /  0 mm 32.0 W/m2 BKN
10:42 5.0 °F /  -15 °C 3.3 °F /  -15.9 °C 1014.1 in /  34337.4 hPa NNE 11.1 mph /  17.9 km/h 11.1 mph /  17.9 km/h 89 % 0.3 in /  7.62 mm 32.0 W/m2 RA
10:47 5.0 °F /  -15 °C 3.5 °F /  -15.8 °C 1014.1 in /  34337.4 hPa Calm     90 % 0.3 in /  7.62 mm 37.0 W/m2 BKN
10:52 5.0 °F /  -15 °C 3.5 °F /  -15.8 °C 1014.1 in /  34337.4 hPa Calm     90 % 0.3 in /  7.62 mm 49.0 W/m2 BKN
10:57 5.0 °F /  -15 °C 3.5 °F /  -15.8 °C 1014.1 in /  34337.4 hPa NNE 6.4 mph /  10.3 km/h 6.4 mph /  10.3 km/h 90 % 0.3 in /  7.62 mm 58.0 W/m2 SCT
11:02 5.0 °F /  -15 °C 3.5 °F /  -15.8 °C 1014.1 in /  34337.4 hPa NNE 9.3 mph /  15 km/h 9.3 mph /  15 km/h 90 % 0.5 in /  12.7 mm 72.0 W/m2 RA
11:07 5.0 °F /  -15 °C 3.5 °F /  -15.8 °C 1014.1 in /  34337.4 hPa Calm     90 % 0.5 in /  12.7 mm 76.0 W/m2 FEW
11:12 5.0 °F /  -15 °C 3.5 °F /  -15.8 °C 1014.1 in /  34337.4 hPa Calm     90 % 0.5 in /  12.7 mm 93.0 W/m2 FEW
11:17 5.0 °F /  -15 °C 3.5 °F /  -15.8 °C 1014.1 in /  34337.4 hPa Calm     90 % 0.5 in /  12.7 mm 79.0 W/m2 FEW
11:22 5.0 °F /  -15 °C 3.5 °F /  -15.8 °C 1014.1 in /  34337.4 hPa Calm     90 % 0.5 in /  12.7 mm 79.0 W/m2 RA
11:27 5.0 °F /  -15 °C 3.5 °F /  -15.8 °C 1014.1 in /  34337.4 hPa Calm     90 % 0.5 in /  12.7 mm 90.0 W/m2 FEW
11:32 5.0 °F /  -15 °C 3.7 °F /  -15.7 °C 1014.1 in /  34337.4 hPa Calm     91 % 0.5 in /  12.7 mm 102.0 W/m2 CLR
11:37 5.0 °F /  -15 °C 3.7 °F /  -15.7 °C 1014.1 in /  34337.4 hPa Calm     91 % 0.5 in /  12.7 mm 114.0 W/m2 CLR
11:42 5.0 °F /  -15 °C 3.7 °F /  -15.7 °C 1014.1 in /  34337.4 hPa Calm     91 % 0.5 in /  12.7 mm 125.0 W/m2 CLR
11:47 5.0 °F /  -15 °C 3.7 °F /  -15.7 °C 1014.1 in /  34337.4 hPa Calm     91 % 0.5 in /  12.7 mm 135.0 W/m2 RA
11:52 5.0 °F /  -15 °C 3.7 °F /  -15.7 °C 1014.1 in /  34337.4 hPa Calm     91 % 0.5 in /  12.7 mm 146.0 W/m2 CLR
11:57 5.0 °F /  -15 °C 3.7 °F /  -15.7 °C 1014.1 in /  34337.4 hPa Calm     91 % 0.5 in /  12.7 mm 146.0 W/m2 CLR
12:02 5.0 °F /  -15 °C 3.7 °F /  -15.7 °C 1014.1 in /  34337.4 hPa Calm     91 % 0.5 in /  12.7 mm 155.0 W/m2 CLR
12:07 5.6 °F /  -14.7 °C 4.2 °F /  -15.4 °C 1014.1 in /  34337.4 hPa Calm     91 % 0.5 in /  12.7 mm 176.0 W/m2 CLR
12:12 5.6 °F /  -14.7 °C 4.2 °F /  -15.4 °C 1014.1 in /  34337.4 hPa Calm     91 % 0.5 in /  12.7 mm 195.0 W/m2 CLR
12:17 5.6 °F /  -14.7 °C 4.2 °F /  -15.4 °C 1014.1 in /  34337.4 hPa Calm     91 % 0.5 in /  12.7 mm 236.0 W/m2 RA
12:22 5.6 °F /  -14.7 °C 4.2 °F /  -15.4 °C 1014.1 in /  34337.4 hPa Calm     91 % 0.5 in /  12.7 mm 250.0 W/m2 CLR
12:27 5.6 °F /  -14.7 °C 4.2 °F /  -15.4 °C 1014.1 in /  34337.4 hPa Calm     91 % 0.5 in /  12.7 mm 232.0 W/m2 CLR
12:32 5.6 °F /  -14.7 °C 4.1 °F /  -15.5 °C 1014.1 in /  34337.4 hPa Calm     90 % 0.5 in /  12.7 mm 155.0 W/m2 RA
12:37 5.6 °F /  -14.7 °C 4.1 °F /  -15.5 °C 1013.8 in /  34327.3 hPa Calm     90 % 0.5 in /  12.7 mm 144.0 W/m2 CLR
12:42 5.6 °F /  -14.7 °C 4.1 °F /  -15.5 °C 1013.8 in /  34327.3 hPa Calm     90 % 0.5 in /  12.7 mm 162.0 W/m2 CLR
12:47 5.6 °F /  -14.7 °C 4.1 °F /  -15.5 °C 1013.8 in /  34327.3 hPa Calm     90 % 0.5 in /  12.7 mm 172.0 W/m2 CLR
12:52 5.6 °F /  -14.7 °C 4.1 °F /  -15.5 °C 1013.8 in /  34327.3 hPa Calm     90 % 0.5 in /  12.7 mm 141.0 W/m2 CLR
12:57 5.6 °F /  -14.7 °C 4.1 °F /  -15.5 °C 1013.8 in /  34327.3 hPa Calm     90 % 0.5 in /  12.7 mm 91.0 W/m2 RA
13:02 5.6 °F /  -14.7 °C 4.1 °F /  -15.5 °C 1013.8 in /  34327.3 hPa Calm     90 % 0.5 in /  12.7 mm 67.0 W/m2 CLR
13:07 5.6 °F /  -14.7 °C 4.1 °F /  -15.5 °C 1013.8 in /  34327.3 hPa Calm     90 % 0.5 in /  12.7 mm 88.0 W/m2 FEW
13:12 5.6 °F /  -14.7 °C 4.1 °F /  -15.5 °C 1013.8 in /  34327.3 hPa SW 5.6 mph /  9 km/h 5.6 mph /  9 km/h 90 % 0.8 in /  20.32 mm 137.0 W/m2 RA
13:17 5.6 °F /  -14.7 °C 4.1 °F /  -15.5 °C 1013.4 in /  34313.7 hPa SW 5.6 mph /  9 km/h 6.1 mph /  9.8 km/h 90 % 0.5 in /  12.7 mm 181.0 W/m2 CLR
13:23 5.6 °F /  -14.7 °C 4.1 °F /  -15.5 °C 1013.4 in /  34313.7 hPa SW 7.4 mph /  11.9 km/h 7.4 mph /  11.9 km/h 90 % 0.5 in /  12.7 mm 190.0 W/m2 CLR
13:27 5.6 °F /  -14.7 °C 4.1 °F /  -15.5 °C 1013.4 in /  34313.7 hPa SW 5.6 mph /  9 km/h 5.6 mph /  9 km/h 90 % 0.8 in /  20.32 mm 188.0 W/m2 RA
13:32 5.6 °F /  -14.7 °C 4.1 °F /  -15.5 °C 1013.4 in /  34313.7 hPa SW 1.9 mph /  3.1 km/h 1.9 mph /  3.1 km/h 90 % 0.5 in /  12.7 mm 199.0 W/m2 CLR
13:37 5.6 °F /  -14.7 °C 4.1 °F /  -15.5 °C 1013.1 in /  34303.6 hPa Calm     90 % 0.5 in /  12.7 mm 213.0 W/m2 CLR
13:42 5.6 °F /  -14.7 °C 4.1 °F /  -15.5 °C 1013.1 in /  34303.6 hPa Calm     90 % 0.5 in /  12.7 mm 202.0 W/m2 CLR
13:48 5.6 °F /  -14.7 °C 4.1 °F /  -15.5 °C 1013.1 in /  34303.6 hPa Calm     90 % 0.5 in /  12.7 mm 193.0 W/m2 CLR
13:53 5.6 °F /  -14.7 °C 4.1 °F /  -15.5 °C 1013.1 in /  34303.6 hPa Calm     90 % 0.5 in /  12.7 mm 179.0 W/m2 CLR
13:58 5.6 °F /  -14.7 °C 4.1 °F /  -15.5 °C 1013.1 in /  34303.6 hPa Calm     90 % 0.5 in /  12.7 mm 192.0 W/m2 CLR
14:03 5.6 °F /  -14.7 °C 4.1 °F /  -15.5 °C 1013.1 in /  34303.6 hPa Calm     90 % 0.5 in /  12.7 mm 146.0 W/m2 CLR
14:08 5.6 °F /  -14.7 °C 3.9 °F /  -15.6 °C 1013.1 in /  34303.6 hPa Calm     89 % 0.5 in /  12.7 mm 128.0 W/m2 CLR
14:13 5.6 °F /  -14.7 °C 3.9 °F /  -15.6 °C 1012.8 in /  34293.4 hPa Calm     89 % 0.3 in /  7.62 mm 104.0 W/m2 CLR
14:18 5.6 °F /  -14.7 °C 4.1 °F /  -15.5 °C 1012.8 in /  34293.4 hPa Calm     90 % 0.5 in /  12.7 mm 76.0 W/m2 RA
14:23 5.6 °F /  -14.7 °C 4.1 °F /  -15.5 °C 1012.8 in /  34293.4 hPa Calm     90 % 0.3 in /  7.62 mm 90.0 W/m2 FEW
14:28 5.6 °F /  -14.7 °C 4.1 °F /  -15.5 °C 1012.8 in /  34293.4 hPa Calm     90 % 0.5 in /  12.7 mm 111.0 W/m2 RA
14:33 5.6 °F /  -14.7 °C 4.1 °F /  -15.5 °C 1012.4 in /  34279.9 hPa Calm     90 % 0.5 in /  12.7 mm 105.0 W/m2 CLR
14:38 5.0 °F /  -15 °C 3.5 °F /  -15.8 °C 1012.4 in /  34279.9 hPa Calm     90 % 0.5 in /  12.7 mm 109.0 W/m2 RA
14:43 5.0 °F /  -15 °C 3.5 °F /  -15.8 °C 1012.4 in /  34279.9 hPa Calm     90 % 0.8 in /  20.32 mm 132.0 W/m2 RA
14:48 5.0 °F /  -15 °C 3.5 °F /  -15.8 °C 1012.4 in /  34279.9 hPa Calm     90 % 0.8 in /  20.32 mm 120.0 W/m2 CLR
14:53 5.0 °F /  -15 °C 3.5 °F /  -15.8 °C 1012.4 in /  34279.9 hPa Calm     90 % 0.8 in /  20.32 mm 105.0 W/m2 CLR
14:58 5.0 °F /  -15 °C 3.5 °F /  -15.8 °C 1012.1 in /  34269.7 hPa Calm     90 % 0.8 in /  20.32 mm 130.0 W/m2 CLR
15:03 5.0 °F /  -15 °C 3.5 °F /  -15.8 °C 1012.1 in /  34269.7 hPa Calm     90 % 0.8 in /  20.32 mm 148.0 W/m2 CLR
15:08 5.0 °F /  -15 °C 3.5 °F /  -15.8 °C 1012.1 in /  34269.7 hPa Calm     90 % 0.8 in /  20.32 mm 153.0 W/m2 CLR
15:13 5.6 °F /  -14.7 °C 4.2 °F /  -15.4 °C 1012.1 in /  34269.7 hPa Calm     91 % 0.8 in /  20.32 mm 151.0 W/m2 CLR
15:18 5.6 °F /  -14.7 °C 4.2 °F /  -15.4 °C 1012.1 in /  34269.7 hPa Calm     91 % 0.5 in /  12.7 mm 148.0 W/m2 CLR
15:23 5.6 °F /  -14.7 °C 4.2 °F /  -15.4 °C 1012.1 in /  34269.7 hPa Calm     91 % 0.5 in /  12.7 mm 139.0 W/m2 CLR
15:28 5.6 °F /  -14.7 °C 4.1 °F /  -15.5 °C 1012.1 in /  34269.7 hPa Calm     90 % 0.5 in /  12.7 mm 128.0 W/m2 CLR
15:33 5.6 °F /  -14.7 °C 4.1 °F /  -15.5 °C 1012.1 in /  34269.7 hPa ENE 5.6 mph /  9 km/h 5.6 mph /  9 km/h 90 % 0.5 in /  12.7 mm 120.0 W/m2 CLR
15:38 5.6 °F /  -14.7 °C 4.1 °F /  -15.5 °C 1012.1 in /  34269.7 hPa Calm     90 % 0.3 in /  7.62 mm 114.0 W/m2 CLR
15:43 5.6 °F /  -14.7 °C 4.1 °F /  -15.5 °C 1012.1 in /  34269.7 hPa NE 1.9 mph /  3.1 km/h   90 % 0.0 in /  0 mm 114.0 W/m2 CLR
15:48 5.6 °F /  -14.7 °C 4.2 °F /  -15.4 °C 1012.1 in /  34269.7 hPa Calm     91 % 0.0 in /  0 mm 120.0 W/m2 CLR
15:53 5.6 °F /  -14.7 °C 4.1 °F /  -15.5 °C 1011.7 in /  34256.2 hPa ENE 5.6 mph /  9 km/h 5.6 mph /  9 km/h 90 % 0.0 in /  0 mm 111.0 W/m2 CLR
15:58 5.6 °F /  -14.7 °C 4.2 °F /  -15.4 °C 1011.7 in /  34256.2 hPa ENE 3.7 mph /  6 km/h 3.7 mph /  6 km/h 91 % 0.0 in /  0 mm 105.0 W/m2 CLR
16:03 5.6 °F /  -14.7 °C 4.2 °F /  -15.4 °C 1011.7 in /  34256.2 hPa Calm     91 % 0.0 in /  0 mm 113.0 W/m2 CLR
16:08 5.6 °F /  -14.7 °C 4.2 °F /  -15.4 °C 1011.7 in /  34256.2 hPa Calm     91 % 0.0 in /  0 mm 107.0 W/m2 CLR
16:13 5.6 °F /  -14.7 °C 4.2 °F /  -15.4 °C 1011.7 in /  34256.2 hPa ENE 1.9 mph /  3.1 km/h 1.9 mph /  3.1 km/h 91 % 0.0 in /  0 mm 104.0 W/m2 CLR
16:18 5.6 °F /  -14.7 °C 4.2 °F /  -15.4 °C 1011.7 in /  34256.2 hPa ENE 3.7 mph /  6 km/h 3.7 mph /  6 km/h 91 % 0.0 in /  0 mm 91.0 W/m2 CLR
16:23 5.6 °F /  -14.7 °C 4.2 °F /  -15.4 °C 1011.7 in /  34256.2 hPa East 1.9 mph /  3.1 km/h 1.9 mph /  3.1 km/h 91 % 0.0 in /  0 mm 100.0 W/m2 CLR
16:28 5.6 °F /  -14.7 °C 4.2 °F /  -15.4 °C 1012.1 in /  34269.7 hPa Calm     91 % 0.0 in /  0 mm 97.0 W/m2 CLR
16:33 5.6 °F /  -14.7 °C 4.2 °F /  -15.4 °C 1011.7 in /  34256.2 hPa Calm     91 % 0.0 in /  0 mm 76.0 W/m2 CLR
16:38 5.6 °F /  -14.7 °C 4.2 °F /  -15.4 °C 1011.7 in /  34256.2 hPa ENE 5.6 mph /  9 km/h 5.6 mph /  9 km/h 91 % 0.0 in /  0 mm 63.0 W/m2 FEW
16:43 5.6 °F /  -14.7 °C 4.2 °F /  -15.4 °C 1012.1 in /  34269.7 hPa ENE 1.9 mph /  3.1 km/h   91 % 0.0 in /  0 mm 67.0 W/m2 FEW
16:48 5.6 °F /  -14.7 °C 4.2 °F /  -15.4 °C 1012.1 in /  34269.7 hPa Calm     91 % 0.0 in /  0 mm 69.0 W/m2 FEW
16:53 5.6 °F /  -14.7 °C 4.2 °F /  -15.4 °C 1012.1 in /  34269.7 hPa Calm     91 % 0.0 in /  0 mm 40.0 W/m2 SCT
16:58 5.0 °F /  -15 °C 3.7 °F /  -15.7 °C 1012.1 in /  34269.7 hPa Calm     91 % 0.0 in /  0 mm 33.0 W/m2 SCT
17:03 5.0 °F /  -15 °C 3.7 °F /  -15.7 °C 1012.1 in /  34269.7 hPa Calm     91 % 0.0 in /  0 mm 21.0 W/m2 BKN
17:08 5.0 °F /  -15 °C 3.7 °F /  -15.7 °C 1012.1 in /  34269.7 hPa East 3.7 mph /  6 km/h 3.7 mph /  6 km/h 91 % 0.0 in /  0 mm 16.0 W/m2 BKN
17:13 5.0 °F /  -15 °C 3.7 °F /  -15.7 °C 1012.1 in /  34269.7 hPa ENE 3.7 mph /  6 km/h 3.7 mph /  6 km/h 91 % 0.0 in /  0 mm 14.0 W/m2 BKN
17:18 5.0 °F /  -15 °C 3.7 °F /  -15.7 °C 1012.1 in /  34269.7 hPa Calm     91 % 0.0 in /  0 mm 12.0 W/m2 BKN
17:23 5.0 °F /  -15 °C 3.7 °F /  -15.7 °C 1012.1 in /  34269.7 hPa Calm     91 % 0.0 in /  0 mm 11.0 W/m2 BKN
17:28 5.0 °F /  -15 °C 3.7 °F /  -15.7 °C 1012.1 in /  34269.7 hPa ENE 5.6 mph /  9 km/h 5.6 mph /  9 km/h 91 % 0.0 in /  0 mm 9.0 W/m2 BKN
17:33 5.0 °F /  -15 °C 3.7 °F /  -15.7 °C 1012.1 in /  34269.7 hPa ENE 5.6 mph /  9 km/h 5.6 mph /  9 km/h 91 % 0.0 in /  0 mm 7.0 W/m2 BKN
17:38 5.0 °F /  -15 °C 3.7 °F /  -15.7 °C 1012.1 in /  34269.7 hPa ENE 3.7 mph /  6 km/h 3.7 mph /  6 km/h 91 % 0.0 in /  0 mm 7.0 W/m2 BKN
17:44 5.0 °F /  -15 °C 3.7 °F /  -15.7 °C 1012.1 in /  34269.7 hPa ENE 3.7 mph /  6 km/h 3.7 mph /  6 km/h 91 % 0.3 in /  7.62 mm 7.0 W/m2 RA
17:49 5.0 °F /  -15 °C 3.7 °F /  -15.7 °C 1012.1 in /  34269.7 hPa East 3.7 mph /  6 km/h 3.7 mph /  6 km/h 91 % 0.3 in /  7.62 mm 7.0 W/m2 BKN
17:54 5.0 °F /  -15 °C 3.7 °F /  -15.7 °C 1012.1 in /  34269.7 hPa ENE 3.7 mph /  6 km/h   91 % 0.3 in /  7.62 mm 7.0 W/m2 BKN
17:59 5.0 °F /  -15 °C 3.8 °F /  -15.7 °C 1012.1 in /  34269.7 hPa East 3.7 mph /  6 km/h   92 % 0.3 in /  7.62 mm 5.0 W/m2 OVC
18:04 4.4 °F /  -15.3 °C 3.3 °F /  -15.9 °C 1012.1 in /  34269.7 hPa East 3.7 mph /  6 km/h 3.7 mph /  6 km/h 92 % 0.3 in /  7.62 mm 0.0 W/m2 OVC
18:09 4.4 °F /  -15.3 °C 3.3 °F /  -15.9 °C 1012.1 in /  34269.7 hPa East 3.2 mph /  5.1 km/h 3.2 mph /  5.1 km/h 92 % 0.5 in /  12.7 mm 0.0 W/m2 RA
18:14 4.4 °F /  -15.3 °C 3.3 °F /  -15.9 °C 1012.1 in /  34269.7 hPa Calm     92 % 0.5 in /  12.7 mm 0.0 W/m2 RA
18:19 4.4 °F /  -15.3 °C 3.3 °F /  -15.9 °C 1012.1 in /  34269.7 hPa East 1.9 mph /  3.1 km/h 1.9 mph /  3.1 km/h 92 % 0.5 in /  12.7 mm 0.0 W/m2
18:24 4.4 °F /  -15.3 °C 3.3 °F /  -15.9 °C 1012.1 in /  34269.7 hPa Calm     92 % 0.8 in /  20.32 mm 0.0 W/m2 RA
18:29 4.4 °F /  -15.3 °C 3.3 °F /  -15.9 °C 1012.1 in /  34269.7 hPa Calm     92 % 1.0 in /  25.4 mm 0.0 W/m2 RA
18:34 4.4 °F /  -15.3 °C 3.3 °F /  -15.9 °C 1012.1 in /  34269.7 hPa Calm     92 % 1.0 in /  25.4 mm 0.0 W/m2
18:39 4.4 °F /  -15.3 °C 3.3 °F /  -15.9 °C 1012.1 in /  34269.7 hPa Calm     92 % 1.0 in /  25.4 mm 0.0 W/m2 CLR
18:44 4.4 °F /  -15.3 °C 3.3 °F /  -15.9 °C 1012.4 in /  34279.9 hPa Calm     92 % 0.8 in /  20.32 mm 0.0 W/m2 CLR
18:49 4.4 °F /  -15.3 °C 3.3 °F /  -15.9 °C 1012.4 in /  34279.9 hPa Calm     92 % 0.8 in /  20.32 mm 0.0 W/m2 CLR
18:54 4.4 °F /  -15.3 °C 3.3 °F /  -15.9 °C 1012.4 in /  34279.9 hPa Calm     92 % 0.8 in /  20.32 mm 0.0 W/m2 CLR
18:59 4.4 °F /  -15.3 °C 3.3 °F /  -15.9 °C 1012.4 in /  34279.9 hPa Calm     92 % 1.0 in /  25.4 mm 0.0 W/m2 RA
19:04 4.4 °F /  -15.3 °C 3.3 °F /  -15.9 °C 1012.4 in /  34279.9 hPa Calm     92 % 1.0 in /  25.4 mm 0.0 W/m2 CLR
19:09 4.4 °F /  -15.3 °C 3.3 °F /  -15.9 °C 1012.4 in /  34279.9 hPa Calm     92 % 1.0 in /  25.4 mm 0.0 W/m2 RA
19:14 4.4 °F /  -15.3 °C 3.3 °F /  -15.9 °C 1012.4 in /  34279.9 hPa Calm     92 % 0.8 in /  20.32 mm 0.0 W/m2
19:20 4.4 °F /  -15.3 °C 3.3 °F /  -15.9 °C 1012.4 in /  34279.9 hPa Calm     92 % 0.8 in /  20.32 mm 0.0 W/m2 CLR
19:25 4.4 °F /  -15.3 °C 3.3 °F /  -15.9 °C 1012.4 in /  34279.9 hPa Calm     92 % 0.5 in /  12.7 mm 0.0 W/m2 CLR
19:30 4.4 °F /  -15.3 °C 3.3 °F /  -15.9 °C 1012.4 in /  34279.9 hPa Calm     92 % 0.5 in /  12.7 mm 0.0 W/m2 RA
19:35 4.4 °F /  -15.3 °C 3.3 °F /  -15.9 °C 1012.4 in /  34279.9 hPa Calm     92 % 0.5 in /  12.7 mm 0.0 W/m2
19:40 4.4 °F /  -15.3 °C 3.3 °F /  -15.9 °C 1012.4 in /  34279.9 hPa Calm     92 % 0.5 in /  12.7 mm 0.0 W/m2 CLR
19:45 4.4 °F /  -15.3 °C 3.3 °F /  -15.9 °C 1012.4 in /  34279.9 hPa Calm     92 % 0.8 in /  20.32 mm 0.0 W/m2 RA
19:50 4.4 °F /  -15.3 °C 3.3 °F /  -15.9 °C 1012.8 in /  34293.4 hPa Calm     92 % 0.8 in /  20.32 mm 0.0 W/m2
19:55 4.4 °F /  -15.3 °C 3.3 °F /  -15.9 °C 1012.4 in /  34279.9 hPa Calm     92 % 0.5 in /  12.7 mm 0.0 W/m2 CLR
20:00 4.4 °F /  -15.3 °C 3.3 °F /  -15.9 °C 1012.4 in /  34279.9 hPa Calm     92 % 0.5 in /  12.7 mm 0.0 W/m2 CLR
20:05 4.4 °F /  -15.3 °C 3.3 °F /  -15.9 °C 1012.4 in /  34279.9 hPa Calm     92 % 0.5 in /  12.7 mm 0.0 W/m2 CLR
20:10 4.4 °F /  -15.3 °C 3.3 °F /  -15.9 °C 1012.4 in /  34279.9 hPa Calm     92 % 0.5 in /  12.7 mm 0.0 W/m2 CLR
20:15 4.4 °F /  -15.3 °C 3.3 °F /  -15.9 °C 1012.4 in /  34279.9 hPa Calm     92 % 0.5 in /  12.7 mm 0.0 W/m2 CLR
20:20 3.9 °F /  -15.6 °C 2.7 °F /  -16.3 °C 1012.4 in /  34279.9 hPa Calm     92 % 0.5 in /  12.7 mm 0.0 W/m2 CLR
20:25 3.9 °F /  -15.6 °C 2.7 °F /  -16.3 °C 1012.4 in /  34279.9 hPa Calm     92 % 0.5 in /  12.7 mm 0.0 W/m2 CLR
20:30 3.9 °F /  -15.6 °C 2.7 °F /  -16.3 °C 1012.4 in /  34279.9 hPa Calm     92 % 0.3 in /  7.62 mm 0.0 W/m2 CLR
20:35 3.9 °F /  -15.6 °C 2.7 °F /  -16.3 °C 1012.4 in /  34279.9 hPa Calm     92 % 0.3 in /  7.62 mm 0.0 W/m2 CLR
20:40 3.9 °F /  -15.6 °C 2.8 °F /  -16.2 °C 1012.4 in /  34279.9 hPa Calm     93 % 0.3 in /  7.62 mm 0.0 W/m2 CLR
20:45 3.9 °F /  -15.6 °C 2.7 °F /  -16.3 °C 1012.4 in /  34279.9 hPa Calm     92 % 0.0 in /  0 mm 0.0 W/m2 CLR
20:50 3.9 °F /  -15.6 °C 2.8 °F /  -16.2 °C 1012.4 in /  34279.9 hPa Calm     93 % 0.0 in /  0 mm 0.0 W/m2 CLR
20:55 3.9 °F /  -15.6 °C 2.8 °F /  -16.2 °C 1012.4 in /  34279.9 hPa Calm     93 % 0.0 in /  0 mm 0.0 W/m2 CLR
21:00 3.9 °F /  -15.6 °C 2.8 °F /  -16.2 °C 1012.8 in /  34293.4 hPa Calm     93 % 0.0 in /  0 mm 0.0 W/m2 CLR
21:05 3.9 °F /  -15.6 °C 2.8 °F /  -16.2 °C 1012.8 in /  34293.4 hPa Calm     93 % 0.0 in /  0 mm 0.0 W/m2 CLR
21:10 3.9 °F /  -15.6 °C 2.8 °F /  -16.2 °C 1012.8 in /  34293.4 hPa Calm     93 % 0.0 in /  0 mm 0.0 W/m2 CLR
21:15 3.9 °F /  -15.6 °C 2.8 °F /  -16.2 °C 1012.4 in /  34279.9 hPa Calm     93 % 0.0 in /  0 mm 0.0 W/m2 CLR
21:20 3.9 °F /  -15.6 °C 2.8 °F /  -16.2 °C 1012.4 in /  34279.9 hPa Calm     93 % 0.0 in /  0 mm 0.0 W/m2 CLR
21:25 3.9 °F /  -15.6 °C 2.8 °F /  -16.2 °C 1012.4 in /  34279.9 hPa Calm     93 % 0.0 in /  0 mm 0.0 W/m2 CLR
21:30 3.9 °F /  -15.6 °C 2.8 °F /  -16.2 °C 1012.4 in /  34279.9 hPa Calm     93 % 0.0 in /  0 mm 0.0 W/m2 CLR
21:35 3.9 °F /  -15.6 °C 2.8 °F /  -16.2 °C 1012.8 in /  34293.4 hPa Calm     93 % 0.0 in /  0 mm 0.0 W/m2 CLR
21:40 3.9 °F /  -15.6 °C 2.8 °F /  -16.2 °C 1012.8 in /  34293.4 hPa Calm     93 % 0.0 in /  0 mm 0.0 W/m2 CLR
21:45 3.9 °F /  -15.6 °C 2.8 °F /  -16.2 °C 1012.8 in /  34293.4 hPa Calm     93 % 0.0 in /  0 mm 0.0 W/m2 CLR
21:50 3.9 °F /  -15.6 °C 2.8 °F /  -16.2 °C 1012.8 in /  34293.4 hPa Calm     93 % 0.0 in /  0 mm 0.0 W/m2 CLR
21:55 3.9 °F /  -15.6 °C 2.8 °F /  -16.2 °C 1012.8 in /  34293.4 hPa Calm     93 % 0.0 in /  0 mm 0.0 W/m2 CLR
22:00 3.9 °F /  -15.6 °C 2.8 °F /  -16.2 °C 1012.4 in /  34279.9 hPa Calm     93 % 0.0 in /  0 mm 0.0 W/m2 CLR
22:05 3.9 °F /  -15.6 °C 2.8 °F /  -16.2 °C 1012.4 in /  34279.9 hPa Calm     93 % 0.3 in /  7.62 mm 0.0 W/m2 RA
22:10 3.9 °F /  -15.6 °C 2.8 °F /  -16.2 °C 1012.4 in /  34279.9 hPa Calm     93 % 0.3 in /  7.62 mm 0.0 W/m2 CLR
22:15 3.9 °F /  -15.6 °C 2.8 °F /  -16.2 °C 1012.8 in /  34293.4 hPa Calm     93 % 0.3 in /  7.62 mm 0.0 W/m2 CLR
22:20 3.9 °F /  -15.6 °C 2.8 °F /  -16.2 °C 1012.8 in /  34293.4 hPa Calm     93 % 0.3 in /  7.62 mm 0.0 W/m2 CLR
22:25 3.9 °F /  -15.6 °C 2.8 °F /  -16.2 °C 1012.8 in /  34293.4 hPa Calm     93 % 0.3 in /  7.62 mm 0.0 W/m2 CLR
22:30 3.9 °F /  -15.6 °C 2.8 °F /  -16.2 °C 1012.8 in /  34293.4 hPa Calm     93 % 0.3 in /  7.62 mm 0.0 W/m2 CLR
22:35 3.9 °F /  -15.6 °C 2.8 °F /  -16.2 °C 1012.8 in /  34293.4 hPa Calm     93 % 0.3 in /  7.62 mm 0.0 W/m2 CLR
22:40 3.9 °F /  -15.6 °C 2.8 °F /  -16.2 °C 1012.8 in /  34293.4 hPa Calm     93 % 0.3 in /  7.62 mm 0.0 W/m2 CLR
22:45 3.9 °F /  -15.6 °C 2.8 °F /  -16.2 °C 1012.8 in /  34293.4 hPa Calm     93 % 0.3 in /  7.62 mm 0.0 W/m2 CLR
22:50 3.9 °F /  -15.6 °C 2.8 °F /  -16.2 °C 1012.8 in /  34293.4 hPa Calm     93 % 0.3 in /  7.62 mm 0.0 W/m2 CLR
22:55 3.9 °F /  -15.6 °C 2.8 °F /  -16.2 °C 1012.8 in /  34293.4 hPa Calm     93 % 0.3 in /  7.62 mm 0.0 W/m2 CLR
23:00 3.9 °F /  -15.6 °C 2.8 °F /  -16.2 °C 1012.8 in /  34293.4 hPa Calm     93 % 0.3 in /  7.62 mm 0.0 W/m2 CLR
23:05 3.9 °F /  -15.6 °C 2.8 °F /  -16.2 °C 1012.8 in /  34293.4 hPa Calm     93 % 0.0 in /  0 mm 0.0 W/m2 CLR
23:10 3.9 °F /  -15.6 °C 2.8 °F /  -16.2 °C 1012.8 in /  34293.4 hPa Calm     93 % 0.0 in /  0 mm 0.0 W/m2 CLR
23:15 3.9 °F /  -15.6 °C 2.8 °F /  -16.2 °C 1012.8 in /  34293.4 hPa Calm     93 % 0.0 in /  0 mm 0.0 W/m2 CLR
23:20 3.9 °F /  -15.6 °C 2.8 °F /  -16.2 °C 1012.8 in /  34293.4 hPa NNW 3.7 mph /  6 km/h 3.7 mph /  6 km/h 93 % 0.0 in /  0 mm 0.0 W/m2 CLR
23:25 3.9 °F /  -15.6 °C 2.8 °F /  -16.2 °C 1012.8 in /  34293.4 hPa NNW 5.6 mph /  9 km/h 5.6 mph /  9 km/h 93 % 0.0 in /  0 mm 0.0 W/m2 CLR
23:30 3.9 °F /  -15.6 °C 2.8 °F /  -16.2 °C 1012.8 in /  34293.4 hPa Calm     93 % 0.0 in /  0 mm 0.0 W/m2 CLR
23:35 4.4 °F /  -15.3 °C 3.4 °F /  -15.9 °C 1012.8 in /  34293.4 hPa Calm     93 % 0.0 in /  0 mm 0.0 W/m2 CLR
23:40 4.4 °F /  -15.3 °C 3.4 °F /  -15.9 °C 1012.8 in /  34293.4 hPa Calm     93 % 0.0 in /  0 mm 0.0 W/m2 CLR
23:45 4.4 °F /  -15.3 °C 3.4 °F /  -15.9 °C 1012.4 in /  34279.9 hPa Calm     93 % 0.0 in /  0 mm 0.0 W/m2 CLR
23:50 4.4 °F /  -15.3 °C 3.4 °F /  -15.9 °C 1012.4 in /  34279.9 hPa North 5.6 mph /  9 km/h 5.6 mph /  9 km/h 93 % 0.0 in /  0 mm 0.0 W/m2 CLR
23:55 4.4 °F /  -15.3 °C 3.4 °F /  -15.9 °C 1012.4 in /  34279.9 hPa Calm     93 % 0.0 in /  0 mm 0.0 W/m2 CLR
Lo Temps de Massalio
Compliments of Weather Underground - 1.25 mb